Time;durP1;ratioP1;P1;durP2;ratioP2;P2;SDS_P1;SDS_P2;PMS_P1;PMS_P2;Temp;Humidity;BMP_temperature;BMP_pressure;BME280_temperature;BME280_humidity;BME280_pressure;Samples;Min_cycle;Max_cycle;Signal;HPM_P1;HPM_P2
2023/04/02 00:01:00;;;;;;;15.00;10.10;;;;;;;8.08;100.00;99836.59;5014447;28;20490;-74
2023/04/02 00:03:44;;;;;;;16.08;10.18;;;;;;;8.03;100.00;99835.44;5028571;28;20061;-75
2023/04/02 00:06:29;;;;;;;14.88;9.95;;;;;;;8.02;100.00;99836.38;5020132;28;20065;-75
2023/04/02 00:08:57;;;;;;;15.25;10.75;;;;;;;8.03;100.00;99835.44;5026430;28;20442;-75
2023/04/02 00:11:34;;;;;;;16.10;11.30;;;;;;;8.05;100.00;99833.47;5016754;28;20049;-74
2023/04/02 00:14:01;;;;;;;14.45;10.35;;;;;;;8.05;100.00;99833.47;5013152;28;20503;-74
2023/04/02 00:16:28;;;;;;;18.55;10.85;;;;;;;8.05;100.00;99839.50;5014467;28;20100;-75
2023/04/02 00:18:57;;;;;;;20.85;11.73;;;;;;;8.09;100.00;99837.44;5017993;28;20501;-75
2023/04/02 00:21:30;;;;;;;15.75;10.95;;;;;;;8.11;100.00;99838.91;5015734;28;20119;-75
2023/04/02 00:23:58;;;;;;;19.42;11.48;;;;;;;8.12;100.00;99840.56;5017922;28;20751;-75
2023/04/02 00:26:36;;;;;;;20.35;11.50;;;;;;;8.13;100.00;99841.38;5018432;28;20079;-75
2023/04/02 00:29:04;;;;;;;14.00;10.35;;;;;;;8.11;100.00;99832.91;5038268;28;20025;-74
2023/04/02 00:31:31;;;;;;;12.75;9.18;;;;;;;8.10;100.00;99842.47;5034363;28;20030;-75
2023/04/02 00:33:58;;;;;;;15.13;11.43;;;;;;;8.07;100.00;99832.38;5027447;28;20545;-74
2023/04/02 00:36:25;;;;;;;20.90;10.95;;;;;;;8.04;100.00;99835.25;5018372;28;20572;-75
2023/04/02 00:38:54;;;;;;;16.52;10.63;;;;;;;7.98;100.00;99834.09;5023514;28;20079;-75
2023/04/02 00:41:23;;;;;;;16.67;10.80;;;;;;;7.91;100.00;99829.59;5019802;28;20064;-76
2023/04/02 00:43:50;;;;;;;20.02;11.55;;;;;;;7.87;100.00;99830.84;5019373;28;20060;-76
2023/04/02 00:46:22;;;;;;;20.73;12.13;;;;;;;7.97;100.00;99836.81;5018067;28;20037;-76
2023/04/02 00:48:51;;;;;;;16.95;10.32;;;;;;;8.06;100.00;99822.16;5017797;28;20039;-76
2023/04/02 00:51:31;;;;;;;13.70;8.98;;;;;;;8.19;100.00;99830.41;5017040;28;20523;-76
2023/04/02 00:54:01;;;;;;;18.05;10.38;;;;;;;8.27;100.00;99828.72;5020717;28;21555;-76
2023/04/02 00:56:30;;;;;;;14.88;8.90;;;;;;;8.41;100.00;99831.84;5016372;28;20060;-76
2023/04/02 00:58:57;;;;;;;12.35;7.47;;;;;;;8.52;100.00;99822.03;5019446;28;20061;-76
2023/04/02 01:01:28;;;;;;;12.48;7.72;;;;;;;8.55;100.00;99826.13;5017414;28;20045;-76
2023/04/02 01:04:00;;;;;;;13.07;8.70;;;;;;;8.50;100.00;99824.00;5018268;28;20121;-76
2023/04/02 01:06:30;;;;;;;14.93;9.70;;;;;;;8.34;100.00;99823.00;5016736;28;20050;-76
2023/04/02 01:09:20;;;;;;;11.05;8.55;;;;;;;8.14;100.00;99820.47;5021786;28;20021;-75
2023/04/02 01:12:07;;;;;;;12.30;8.35;;;;;;;8.10;100.00;99824.31;5016428;28;20033;-76
2023/04/02 01:14:47;;;;;;;15.23;8.23;;;;;;;8.15;100.00;99819.50;5018095;28;20037;-76
2023/04/02 01:17:27;;;;;;;11.52;7.70;;;;;;;8.21;100.00;99826.72;5020122;28;20483;-76
2023/04/02 01:20:14;;;;;;;11.10;7.15;;;;;;;8.04;100.00;99814.50;5015277;28;20039;-75
2023/04/02 01:22:58;;;;;;;11.32;7.97;;;;;;;7.95;100.00;99823.19;5021200;28;20387;-76
2023/04/02 01:25:33;;;;;;;14.15;7.68;;;;;;;7.85;100.00;99815.44;5018123;28;20908;-76
2023/04/02 01:28:09;;;;;;;12.27;8.48;;;;;;;7.76;100.00;99810.28;5017608;28;20033;-76
2023/04/02 01:30:35;;;;;;;;;;;;;;;7.81;100.00;99810.66;5022260;28;20037;-76
2023/04/02 01:33:01;;;;;;;12.70;9.15;;;;;;;7.81;100.00;99813.25;5019289;28;19917;-76
2023/04/02 01:35:33;;;;;;;19.15;10.10;;;;;;;7.98;100.00;99809.91;5017350;28;20042;-76
2023/04/02 01:38:10;;;;;;;15.55;8.98;;;;;;;8.40;100.00;99805.06;5020537;28;20056;-76
2023/04/02 01:40:46;;;;;;;14.30;8.10;;;;;;;8.68;100.00;99805.81;5017394;28;20038;-76
2023/04/02 01:43:23;;;;;;;10.55;7.68;;;;;;;8.80;100.00;99804.63;5018337;28;20025;-76
2023/04/02 01:45:49;;;;;;;19.77;8.13;;;;;;;8.85;100.00;99802.41;5018362;28;20569;-76
2023/04/02 01:48:23;;;;;;;13.52;6.95;;;;;;;8.82;100.00;99812.28;5015737;28;20082;-76
2023/04/02 01:50:51;;;;;;;9.50;7.28;;;;;;;8.69;100.00;99802.25;5020551;28;20021;-77
2023/04/02 01:53:19;;;;;;;11.30;7.57;;;;;;;8.55;100.00;99802.75;5020241;28;20532;-76
2023/04/02 01:55:55;;;;;;;16.65;8.27;;;;;;;8.44;100.00;99800.41;5020248;28;20048;-75
2023/04/02 01:58:24;;;;;;;8.75;6.43;;;;;;;8.50;100.00;99799.81;5019449;28;20030;-76
2023/04/02 02:01:04;;;;;;;9.38;6.70;;;;;;;8.67;100.00;99801.59;5020144;28;20487;-76
2023/04/02 02:03:30;;;;;;;12.02;7.07;;;;;;;8.80;100.00;99804.63;5017575;28;20458;-76
2023/04/02 02:05:56;;;;;;;11.30;6.50;;;;;;;8.87;100.00;99799.66;5019235;28;20045;-76
2023/04/02 02:08:21;;;;;;;14.63;6.38;;;;;;;8.88;100.00;99807.31;5018576;28;20391;-76
2023/04/02 02:10:48;;;;;;;15.43;7.45;;;;;;;8.83;100.00;99804.34;5016765;28;20047;-76
2023/04/02 02:13:14;;;;;;;15.95;8.07;;;;;;;8.83;100.00;99809.53;5017668;28;20028;-75
2023/04/02 02:15:40;;;;;;;12.82;7.53;;;;;;;8.87;100.00;99810.88;5015526;28;20188;-75
2023/04/02 02:18:10;;;;;;;13.23;6.45;;;;;;;8.87;100.00;99818.66;5015248;28;20120;-76
2023/04/02 02:20:35;;;;;;;10.07;6.65;;;;;;;8.89;100.00;99821.94;5017198;28;20045;-75
2023/04/02 02:23:02;;;;;;;16.30;6.32;;;;;;;8.88;100.00;99822.88;5016404;28;20033;-76
2023/04/02 02:25:32;;;;;;;13.02;7.15;;;;;;;8.96;100.00;99816.94;5017696;28;20120;-76
2023/04/02 02:28:06;;;;;;;9.85;5.35;;;;;;;9.04;100.00;99823.97;5019416;28;20503;-76
2023/04/02 02:30:44;;;;;;;11.50;5.47;;;;;;;9.08;100.00;99820.94;5013641;28;20065;-76
2023/04/02 02:33:20;;;;;;;10.85;5.70;;;;;;;9.14;100.00;99827.31;5014436;28;20113;-76
2023/04/02 02:35:54;;;;;;;9.80;5.38;;;;;;;9.18;100.00;99821.66;5015873;28;20052;-76
2023/04/02 02:38:29;;;;;;;13.05;5.72;;;;;;;9.19;100.00;99831.09;5016364;28;20487;-76
2023/04/02 02:41:00;;;;;;;13.55;5.57;;;;;;;9.09;100.00;99826.94;5014891;28;20494;-76
2023/04/02 02:43:26;;;;;;;10.65;5.78;;;;;;;8.90;100.00;99831.34;5017343;28;20034;-76
2023/04/02 02:45:54;;;;;;;12.93;6.68;;;;;;;8.60;100.00;99821.31;5018469;28;20450;-76
2023/04/02 02:48:26;;;;;;;13.52;7.45;;;;;;;8.41;100.00;99826.66;5018566;28;20120;-76
2023/04/02 02:50:54;;;;;;;13.25;6.55;;;;;;;8.30;100.00;99823.25;5018074;28;20061;-77
2023/04/02 02:53:22;;;;;;;12.10;6.57;;;;;;;8.26;100.00;99821.91;5016824;28;20044;-76
2023/04/02 02:55:57;;;;;;;14.02;6.97;;;;;;;8.30;100.00;99832.81;5017903;28;20081;-76
2023/04/02 02:58:27;;;;;;;12.43;6.07;;;;;;;8.46;100.00;99827.03;5014381;28;20034;-76
2023/04/02 03:00:52;;;;;;;11.00;5.97;;;;;;;8.52;100.00;99835.03;5015107;28;20129;-76
2023/04/02 03:03:22;;;;;;;6.72;4.57;;;;;;;8.60;100.00;99829.09;5013601;28;20041;-76
2023/04/02 03:05:53;;;;;;;9.18;5.47;;;;;;;8.73;100.00;99839.13;5015604;28;20553;-76
2023/04/02 03:08:27;;;;;;;9.35;3.80;;;;;;;8.78;100.00;99831.72;5018281;28;20037;-76
2023/04/02 03:11:01;;;;;;;7.93;4.43;;;;;;;8.76;100.00;99837.06;5017329;28;20101;-76
2023/04/02 03:13:34;;;;;;;8.05;4.07;;;;;;;8.68;100.00;99836.97;5015030;28;20491;-76
2023/04/02 03:16:22;;;;;;;6.65;5.00;;;;;;;8.60;100.00;99836.88;5016940;28;20038;-76
2023/04/02 03:19:32;;;;;;;8.48;5.03;;;;;;;8.59;100.00;99830.06;5016304;28;20043;-76
2023/04/02 03:22:02;;;;;;;9.25;4.65;;;;;;;8.58;100.00;99834.44;5015667;28;20030;-77
2023/04/02 03:24:33;;;;;;;12.80;4.45;;;;;;;8.61;100.00;99831.56;5016380;28;20030;-76
2023/04/02 03:27:25;;;;;;;7.68;4.97;;;;;;;8.61;100.00;99833.34;5014267;28;20044;-76
2023/04/02 03:30:19;;;;;;;9.48;4.88;;;;;;;8.62;100.00;99842.75;5014157;28;20100;-75
2023/04/02 03:32:48;;;;;;;9.45;4.50;;;;;;;8.67;100.00;99840.53;5016195;28;20033;-76
2023/04/02 03:35:39;;;;;;;10.05;4.07;;;;;;;8.69;100.00;99845.59;5015726;28;20068;-75
2023/04/02 03:38:09;;;;;;;12.00;4.30;;;;;;;8.73;100.00;99849.53;5012573;28;20056;-75
2023/04/02 03:40:42;;;;;;;8.65;3.83;;;;;;;8.76;100.00;99839.66;5022582;28;20041;-77
2023/04/02 03:43:24;;;;;;;11.07;4.07;;;;;;;8.77;100.00;99846.47;5021489;28;20298;-77
2023/04/02 03:46:18;;;;;;;5.97;3.45;;;;;;;8.82;100.00;99843.44;5018325;28;20033;-77
2023/04/02 03:48:52;;;;;;;4.80;3.50;;;;;;;8.83;100.00;99848.50;5012822;28;20127;-76
2023/04/02 03:51:35;;;;;;;7.60;3.38;;;;;;;8.88;100.00;99854.06;5018963;28;20068;-75
2023/04/02 03:54:01;;;;;;;9.40;3.65;;;;;;;8.92;100.00;99855.41;5019543;28;20547;-76
2023/04/02 03:56:27;;;;;;;8.25;3.75;;;;;;;8.97;100.00;99858.38;5016550;28;20055;-76
2023/04/02 03:59:24;;;;;;;6.47;3.13;;;;;;;8.96;100.00;99861.13;5022175;28;20082;-76
2023/04/02 04:01:55;;;;;;;;;;;;;;;8.92;100.00;99857.19;5027018;28;20049;-75
2023/04/02 04:04:25;;;;;;;7.15;2.60;;;;;;;8.93;100.00;99859.63;5018351;28;19929;-75
2023/04/02 04:06:51;;;;;;;6.72;3.50;;;;;;;8.99;100.00;99864.22;5023895;28;20030;-76
2023/04/02 04:09:23;;;;;;;8.07;3.10;;;;;;;9.03;100.00;99866.50;5028378;28;20037;-75
2023/04/02 04:11:52;;;;;;;5.70;3.65;;;;;;;8.99;100.00;99866.81;5022109;28;20124;-75
2023/04/02 04:14:19;;;;;;;5.10;3.83;;;;;;;8.87;100.00;99868.03;5020195;28;20030;-76
2023/04/02 04:16:53;;;;;;;9.52;5.45;;;;;;;8.73;100.00;99873.72;5022272;28;20110;-76
2023/04/02 04:19:20;;;;;;;7.88;4.30;;;;;;;8.66;100.00;99875.25;5024054;28;20030;-76
2023/04/02 04:21:46;;;;;;;8.10;4.10;;;;;;;8.59;100.00;99882.00;5023816;28;20062;-76
2023/04/02 04:24:33;;;;;;;8.07;5.18;;;;;;;8.56;100.00;99887.47;5023007;28;20045;-76
2023/04/02 04:27:03;;;;;;;10.00;4.32;;;;;;;8.61;100.00;99887.88;5023268;28;20121;-76
2023/04/02 04:29:46;;;;;;;5.05;2.83;;;;;;;8.63;100.00;99891.94;5024431;28;20038;-76
2023/04/02 04:32:32;;;;;;;7.38;2.38;;;;;;;8.76;100.00;99886.41;5030733;28;20037;-76
2023/04/02 04:35:21;;;;;;;5.75;2.55;;;;;;;8.86;100.00;99897.56;5028754;28;20279;-76
2023/04/02 04:37:48;;;;;;;6.20;1.85;;;;;;;8.91;100.00;99897.94;5027061;28;20108;-76
2023/04/02 04:40:24;;;;;;;8.43;2.05;;;;;;;8.94;100.00;99896.81;5029571;28;20396;-75
2023/04/02 04:42:55;;;;;;;5.22;1.98;;;;;;;8.95;100.00;99906.25;5026297;28;20469;-75
2023/04/02 04:46:00;;;;;;;6.57;2.20;;;;;;;8.90;100.00;99909.28;5021939;28;21156;-74
2023/04/02 04:48:36;;;;;;;5.03;2.00;;;;;;;8.91;100.00;99905.72;4957678;28;20094;-74
2023/04/02 04:51:16;;;;;;;5.45;2.20;;;;;;;8.95;100.00;99912.28;4960032;28;20687;-74
2023/04/02 04:53:50;;;;;;;4.85;1.67;;;;;;;9.01;100.00;99917.81;4960530;28;20035;-74
2023/04/02 04:56:24;;;;;;;1.90;1.42;;;;;;;8.99;100.00;99912.75;4964455;28;20043;-74
2023/04/02 04:58:59;;;;;;;7.28;2.03;;;;;;;8.96;100.00;99923.47;4964910;28;20046;-74
2023/04/02 05:01:54;;;;;;;4.80;2.10;;;;;;;8.93;100.00;99918.56;4965366;28;20124;-75
2023/04/02 05:04:40;;;;;;;4.35;1.73;;;;;;;8.88;100.00;99923.38;4890036;29;20044;-74
2023/04/02 05:07:19;;;;;;;3.85;1.98;;;;;;;8.89;100.00;99922.44;4895042;29;20064;-74
2023/04/02 05:09:56;;;;;;;3.60;1.63;;;;;;;8.91;100.00;99921.31;4891044;29;20108;-75
2023/04/02 05:12:47;;;;;;;5.30;1.90;;;;;;;8.90;100.00;99924.88;4887108;29;20041;-74
2023/04/02 05:15:26;;;;;;;4.03;1.58;;;;;;;8.88;100.00;99919.00;4888196;29;20047;-74
2023/04/02 05:18:11;;;;;;;5.13;1.90;;;;;;;8.90;100.00;99924.88;4889352;29;20669;-74
2023/04/02 05:20:56;;;;;;;3.67;2.00;;;;;;;8.93;100.00;99928.97;4887852;29;20036;-74
2023/04/02 05:23:27;;;;;;;7.07;1.73;;;;;;;8.97;100.00;99931.13;4960810;28;20042;-74
2023/04/02 05:26:04;;;;;;;6.32;2.15;;;;;;;9.01;100.00;99930.81;4961910;28;20084;-75
2023/04/02 05:28:39;;;;;;;7.20;1.50;;;;;;;9.05;100.00;99942.53;4966729;28;20051;-74
2023/04/02 05:31:18;;;;;;;4.93;1.58;;;;;;;9.14;100.00;99939.06;4966317;28;20081;-74
2023/04/02 05:33:46;;;;;;;3.47;1.48;;;;;;;9.18;100.00;99948.19;4968957;28;20061;-75
2023/04/02 05:36:21;;;;;;;3.58;1.65;;;;;;;9.18;100.00;99949.00;4973702;28;20042;-75
2023/04/02 05:38:48;;;;;;;4.13;1.35;;;;;;;9.19;100.00;99960.22;4962629;28;20082;-74
2023/04/02 05:41:23;;;;;;;4.90;1.48;;;;;;;9.21;100.00;99960.91;4989314;28;20670;-75
2023/04/02 05:43:55;;;;;;;4.07;1.20;;;;;;;9.21;100.00;99960.91;5018957;28;20049;-74
2023/04/02 05:46:26;;;;;;;8.82;1.52;;;;;;;9.25;100.00;99965.66;5023028;28;20040;-75
2023/04/02 05:48:57;;;;;;;5.60;1.20;;;;;;;9.28;100.00;99974.94;5026622;28;20128;-74
2023/04/02 05:51:38;;;;;;;2.25;1.10;;;;;;;9.32;100.00;99971.91;5022034;28;20037;-74
2023/04/02 05:54:13;;;;;;;2.50;1.25;;;;;;;9.39;100.00;99966.94;5016568;28;20022;-75
2023/04/02 05:56:44;;;;;;;5.90;1.13;;;;;;;9.41;100.00;99975.41;5019299;28;20036;-74
2023/04/02 05:59:20;;;;;;;5.78;1.00;;;;;;;9.44;100.00;99975.09;5018950;28;20038;-74
2023/04/02 06:02:03;;;;;;;3.83;1.00;;;;;;;9.46;100.00;99988.75;5021688;28;20068;-75
2023/04/02 06:04:46;;;;;;;2.45;1.02;;;;;;;9.43;100.00;99989.06;4984376;28;1132866;-75
2023/04/02 06:07:18;;;;;;;2.10;0.70;;;;;;;9.42;100.00;99992.63;5023603;28;20029;-75
2023/04/02 06:09:59;;;;;;;4.28;0.88;;;;;;;9.45;100.00;99996.72;5026037;28;20092;-75
2023/04/02 06:12:36;;;;;;;2.05;0.85;;;;;;;9.51;100.00;99991.72;5023861;28;20141;-75
2023/04/02 06:15:01;;;;;;;4.47;0.70;;;;;;;9.56;100.00;100001.69;5025234;28;20033;-74
2023/04/02 06:17:27;;;;;;;2.92;0.80;;;;;;;9.57;100.00;99998.94;5019779;28;20026;-74
2023/04/02 06:19:56;;;;;;;4.32;1.35;;;;;;;9.62;100.00;100004.50;5018267;28;20496;-74
2023/04/02 06:22:31;;;;;;;6.60;1.00;;;;;;;9.69;100.00;99999.53;5019343;28;20026;-74
2023/04/02 06:25:14;;;;;;;1.88;0.95;;;;;;;9.80;99.64;100006.28;5015343;28;20108;-73
2023/04/02 06:27:41;;;;;;;5.53;3.17;;;;;;;9.85;100.00;100004.88;5024676;28;20044;-76
2023/04/02 06:30:16;;;;;;;8.52;3.35;;;;;;;9.81;100.00;100013.13;5027941;28;20491;-76
2023/04/02 06:32:41;;;;;;;6.40;4.20;;;;;;;9.78;100.00;100016.84;5024867;28;20403;-75
2023/04/02 06:35:12;;;;;;;12.25;4.70;;;;;;;9.81;100.00;100010.53;5022636;28;20025;-75
2023/04/02 06:37:41;;;;;;;6.30;3.22;;;;;;;9.85;100.00;100023.06;5024391;28;20037;-76
2023/04/02 06:40:39;;;;;;;4.80;1.60;;;;;;;9.88;98.61;100017.56;5027877;28;20088;-74
2023/04/02 06:43:35;;;;;;;3.65;1.30;;;;;;;9.99;98.63;100024.31;5023416;28;20063;-75
2023/04/02 06:46:08;;;;;;;4.88;0.80;;;;;;;10.10;98.25;100028.44;5017869;28;20050;-75
2023/04/02 06:48:36;;;;;;;1.60;0.60;;;;;;;10.15;98.03;100031.41;5029103;28;20029;-76
2023/04/02 06:51:12;;;;;;;3.75;0.73;;;;;;;10.15;96.23;100037.44;5044484;28;20029;-75
2023/04/02 06:53:42;;;;;;;8.18;1.75;;;;;;;10.19;96.55;100045.75;5019265;28;20040;-75
2023/04/02 06:56:26;;;;;;;6.15;2.15;;;;;;;10.20;96.16;100045.66;5020354;28;20041;-75
2023/04/02 06:58:52;;;;;;;6.22;1.90;;;;;;;10.22;96.61;100051.53;5018058;28;20394;-75
2023/04/02 07:01:22;;;;;;;8.93;2.35;;;;;;;10.24;95.85;100052.19;5014226;28;20101;-76
2023/04/02 07:03:48;;;;;;;2.83;1.17;;;;;;;10.29;95.72;100054.34;5018917;28;20037;-75
2023/04/02 07:06:18;;;;;;;7.13;2.28;;;;;;;10.36;94.87;100050.16;5018806;28;20037;-75
2023/04/02 07:08:44;;;;;;;7.95;1.95;;;;;;;10.45;95.19;100059.63;5017245;28;20033;-75
2023/04/02 07:11:15;;;;;;;7.85;2.10;;;;;;;10.53;94.85;100064.06;5016124;28;20025;-75
2023/04/02 07:13:41;;;;;;;7.57;2.42;;;;;;;10.60;94.05;100065.91;5020698;28;20029;-75
2023/04/02 07:16:14;;;;;;;5.35;1.85;;;;;;;10.66;92.62;100066.28;5016142;28;20391;-75
2023/04/02 07:18:41;;;;;;;2.60;0.93;;;;;;;10.77;92.79;100068.63;5016241;28;20048;-75
2023/04/02 07:21:06;;;;;;;2.85;0.93;;;;;;;10.77;91.56;100066.81;5018678;28;20371;-75
2023/04/02 07:23:31;;;;;;;4.90;0.93;;;;;;;10.77;90.68;100066.81;5015734;28;20111;-74
2023/04/02 07:25:57;;;;;;;5.70;1.20;;;;;;;10.79;91.19;100072.69;5017211;28;20391;-74
2023/04/02 07:28:23;;;;;;;4.28;1.20;;;;;;;10.85;91.66;100072.09;5017861;28;20034;-74
2023/04/02 07:30:50;;;;;;;5.68;1.17;;;;;;;10.92;91.08;100073.06;5016478;28;21084;-74
2023/04/02 07:33:18;;;;;;;2.47;0.70;;;;;;;11.01;90.40;100080.94;5015437;28;20025;-73
2023/04/02 07:35:44;;;;;;;5.47;1.65;;;;;;;11.06;89.80;100068.25;5027139;28;20033;-73
2023/04/02 07:38:10;;;;;;;4.70;1.77;;;;;;;11.09;89.77;100073.16;5031583;28;20479;-73
2023/04/02 07:40:36;;;;;;;3.83;0.85;;;;;;;11.16;89.53;100071.53;5023834;28;20068;-72
2023/04/02 07:43:02;;;;;;;2.65;0.57;;;;;;;11.16;87.85;100071.53;5015902;28;20047;-72
2023/04/02 07:45:28;;;;;;;2.65;0.70;;;;;;;11.20;87.76;100065.84;5013523;28;20051;-72
2023/04/02 07:47:53;;;;;;;1.55;0.50;;;;;;;11.26;88.52;100069.63;5013278;28;20483;-72
2023/04/02 07:50:19;;;;;;;2.08;0.50;;;;;;;11.32;86.94;100074.22;5012511;28;20115;-72
2023/04/02 07:52:45;;;;;;;5.28;0.60;;;;;;;11.42;86.71;100085.31;5018159;28;20038;-72
2023/04/02 07:55:13;;;;;;;3.17;0.50;;;;;;;11.43;85.85;100081.72;5012208;28;20640;-72
2023/04/02 07:57:43;;;;;;;1.77;0.73;;;;;;;11.57;86.02;100088.94;5014803;28;20129;-73
2023/04/02 08:00:10;;;;;;;3.35;0.70;;;;;;;11.63;85.00;100087.47;5017575;28;20040;-72
2023/04/02 08:02:36;;;;;;;3.13;0.60;;;;;;;11.64;85.51;100092.53;5025474;28;20502;-73
2023/04/02 08:05:02;;;;;;;3.95;0.60;;;;;;;11.73;84.66;100095.16;5029514;28;20057;-72
2023/04/02 08:07:27;;;;;;;2.92;0.45;;;;;;;11.79;84.44;100105.00;5031169;28;20498;-73
2023/04/02 08:09:52;;;;;;;2.20;0.40;;;;;;;11.88;83.76;100096.19;5032170;28;20025;-72
2023/04/02 08:12:18;;;;;;;3.63;0.77;;;;;;;11.96;84.39;100104.03;5032438;28;20141;-73
2023/04/02 08:14:43;;;;;;;5.43;0.70;;;;;;;12.08;84.27;100101.91;5028819;28;20029;-72
2023/04/02 08:17:09;;;;;;;1.60;0.50;;;;;;;12.14;84.26;100104.69;5016568;28;20111;-72
2023/04/02 08:19:34;;;;;;;3.00;0.75;;;;;;;12.22;84.02;100109.09;5030869;28;20148;-72
2023/04/02 08:22:00;;;;;;;0.80;0.43;;;;;;;12.26;83.90;100111.22;5030717;28;20462;-72
2023/04/02 08:24:25;;;;;;;2.88;0.40;;;;;;;12.29;83.68;100110.06;5019281;28;20108;-72
2023/04/02 08:26:53;;;;;;;4.32;0.93;;;;;;;12.29;83.32;100116.09;5022677;28;20037;-72
2023/04/02 08:29:19;;;;;;;4.97;0.55;;;;;;;12.44;82.46;100107.59;5028189;28;20048;-72
2023/04/02 08:31:45;;;;;;;4.15;0.65;;;;;;;12.53;83.04;100107.44;5023479;28;20068;-73
2023/04/02 08:34:10;;;;;;;1.42;0.65;;;;;;;12.71;82.57;100107.25;5019068;28;21487;-73
2023/04/02 08:36:39;;;;;;;3.55;0.55;;;;;;;12.90;81.89;100106.84;5020711;28;20126;-74
2023/04/02 08:39:10;;;;;;;1.05;0.50;;;;;;;13.00;80.35;100108.47;5018150;28;20033;-73
2023/04/02 08:41:43;;;;;;;6.25;0.60;;;;;;;12.99;80.83;100112.06;5020954;28;20111;-72
2023/04/02 08:44:14;;;;;;;3.30;0.50;;;;;;;12.86;80.67;100109.97;5017665;28;20037;-72
2023/04/02 08:46:47;;;;;;;1.75;0.60;;;;;;;12.91;78.01;100111.09;5023192;28;20175;-72
2023/04/02 08:49:18;;;;;;;1.60;0.40;;;;;;;13.02;79.02;100112.53;5023197;28;20403;-72
2023/04/02 08:51:46;;;;;;;2.78;0.50;;;;;;;13.15;79.47;100112.81;5027403;28;20047;-72
2023/04/02 08:54:25;;;;;;;4.15;0.32;;;;;;;13.23;77.17;100115.41;5024764;28;20117;-72
2023/04/02 08:57:20;;;;;;;3.80;0.65;;;;;;;13.23;76.06;100112.00;5023488;28;20120;-71
2023/04/02 08:59:46;;;;;;;6.82;0.52;;;;;;;13.29;79.52;100116.53;5021819;28;20026;-73
2023/04/02 09:02:36;;;;;;;3.45;0.40;;;;;;;13.31;74.80;100117.19;5017250;28;21162;-73
2023/04/02 09:05:06;;;;;;;1.83;0.40;;;;;;;13.40;77.72;100117.97;5022009;28;20044;-72
2023/04/02 09:07:32;;;;;;;4.97;0.40;;;;;;;13.45;76.54;100118.28;5016098;28;20034;-72
2023/04/02 09:09:58;;;;;;;1.48;0.57;;;;;;;13.65;77.32;100123.91;5022366;28;20030;-71
2023/04/02 09:12:27;;;;;;;2.25;0.40;;;;;;;13.78;75.41;100129.34;5020619;28;20029;-71
2023/04/02 09:15:22;;;;;;;1.85;0.60;;;;;;;13.70;71.42;100137.28;5019105;28;20119;-72
2023/04/02 09:17:49;;;;;;;2.30;0.40;;;;;;;13.83;76.12;100127.03;5021438;28;20387;-73
2023/04/02 09:20:17;;;;;;;1.58;0.40;;;;;;;14.03;75.41;100128.22;5022497;28;20087;-73
2023/04/02 09:22:50;;;;;;;3.33;0.77;;;;;;;14.24;75.38;100128.38;5035345;28;20037;-73
2023/04/02 09:25:26;;;;;;;4.18;0.57;;;;;;;14.35;77.25;100121.06;5013949;28;20128;-73
2023/04/02 09:27:54;;;;;;;1.60;0.50;;;;;;;14.39;77.31;100117.13;5015347;28;20984;-73
2023/04/02 09:30:30;;;;;;;3.85;0.40;;;;;;;14.28;76.70;100127.03;5018241;28;20053;-74
2023/04/02 09:33:01;;;;;;;5.07;0.90;;;;;;;14.24;76.62;100117.88;5018354;28;20117;-74
2023/04/02 09:35:32;;;;;;;1.92;0.50;;;;;;;14.16;74.61;100112.75;5028657;28;20045;-73
2023/04/02 09:38:21;;;;;;;2.75;0.40;;;;;;;14.20;72.59;100119.22;5026402;28;20029;-73
2023/04/02 09:40:53;;;;;;;1.70;0.40;;;;;;;14.23;72.33;100118.88;5034332;28;20047;-74
2023/04/02 09:43:25;;;;;;;2.42;1.05;;;;;;;14.31;74.42;100117.19;5024225;28;20487;-73
2023/04/02 09:46:12;;;;;;;2.17;0.50;;;;;;;14.31;69.78;100120.63;5025504;28;20457;-74
2023/04/02 09:48:43;;;;;;;3.38;0.43;;;;;;;14.36;75.54;100123.53;5022278;28;20028;-73
2023/04/02 09:51:08;;;;;;;2.47;0.95;;;;;;;14.43;75.43;100123.66;5024451;28;20138;-73
2023/04/02 09:53:37;;;;;;;1.13;0.40;;;;;;;14.50;74.44;100120.16;5024718;28;20111;-73
2023/04/02 09:56:07;;;;;;;1.60;0.40;;;;;;;14.52;73.46;100118.19;5032060;28;20041;-73
2023/04/02 09:58:33;;;;;;;2.55;0.55;;;;;;;14.64;73.94;100120.38;5027024;28;20053;-74
2023/04/02 10:00:59;;;;;;;2.65;0.50;;;;;;;14.77;73.71;100126.59;5017320;28;20048;-73
2023/04/02 10:03:27;;;;;;;1.88;0.40;;;;;;;15.08;73.12;100115.13;4997012;28;20042;-73
2023/04/02 10:06:14;;;;;;;3.47;1.13;;;;;;;15.42;71.89;100120.59;5018608;28;20562;-73
2023/04/02 10:08:42;;;;;;;1.00;0.43;;;;;;;15.55;72.61;100123.38;5017613;28;20038;-74
2023/04/02 10:11:30;;;;;;;2.13;0.32;;;;;;;15.56;70.41;100111.06;5016078;28;20108;-73
2023/04/02 10:14:16;;;;;;;2.08;0.68;;;;;;;15.50;66.38;100112.63;5021130;28;20028;-74
2023/04/02 10:16:50;;;;;;;2.25;0.40;;;;;;;15.63;66.47;100111.97;5047155;28;20140;-74
2023/04/02 10:19:26;;;;;;;0.93;0.40;;;;;;;15.67;67.88;100109.78;5014009;28;20107;-74
2023/04/02 10:21:53;;;;;;;;;;;;;;;15.81;60.86;100108.91;5019787;28;20041;-73
2023/04/02 10:24:18;;;;;;;2.17;0.52;;;;;;;16.07;67.43;100098.66;5014363;28;20512;-73
2023/04/02 10:26:49;;;;;;;1.88;0.30;;;;;;;16.13;65.60;100107.59;5016287;28;20041;-73
2023/04/02 10:29:23;;;;;;;2.75;0.20;;;;;;;16.12;62.92;100095.44;5014062;28;20706;-74
2023/04/02 10:32:08;;;;;;;3.33;0.20;;;;;;;16.15;60.13;100100.31;5015738;28;20460;-73
2023/04/02 10:34:53;;;;;;;2.57;0.30;;;;;;;16.15;60.04;100098.50;5012650;28;20037;-73
2023/04/02 10:37:25;;;;;;;0.55;0.10;;;;;;;16.18;61.64;100089.44;5013992;28;20033;-73
2023/04/02 10:39:59;;;;;;;0.25;0.10;;;;;;;16.30;60.28;100097.63;5015182;28;20436;-73
2023/04/02 10:42:36;;;;;;;0.32;0.10;;;;;;;16.27;59.40;100083.84;5017571;28;20816;-73
2023/04/02 10:45:16;;;;;;;2.08;0.10;;;;;;;16.20;59.65;100083.00;5012750;28;20462;-73
2023/04/02 10:47:58;;;;;;;1.42;0.05;;;;;;;16.21;58.47;100082.00;5017026;28;20077;-73
2023/04/02 10:50:28;;;;;;;1.02;0.00;;;;;;;16.17;57.31;100083.38;5016130;28;20033;-73
2023/04/02 10:53:14;;;;;;;0.28;0.10;;;;;;;16.03;56.15;100086.91;5016512;28;20025;-73
2023/04/02 10:55:44;;;;;;;0.57;0.10;;;;;;;16.03;57.60;100081.66;5015812;28;20584;-73
2023/04/02 10:58:21;;;;;;;0.85;0.10;;;;;;;15.91;54.67;100077.91;5017172;28;20132;-73
2023/04/02 11:00:48;;;;;;;0.30;0.00;;;;;;;15.96;56.39;100075.53;5021164;28;20030;-73
2023/04/02 11:03:32;;;;;;;0.57;0.10;;;;;;;16.08;54.97;100067.91;5015324;28;20044;-73
2023/04/02 11:06:01;;;;;;;0.45;0.10;;;;;;;16.22;57.37;100073.09;5016213;28;21834;-73
2023/04/02 11:08:32;;;;;;;1.27;0.00;;;;;;;16.28;55.16;100066.28;5012965;28;20037;-74
2023/04/02 11:11:06;;;;;;;1.65;0.05;;;;;;;16.39;54.64;100075.47;5017152;28;20075;-73
2023/04/02 11:13:42;;;;;;;0.40;0.00;;;;;;;16.26;54.24;100068.28;5021284;28;20378;-73
2023/04/02 11:16:14;;;;;;;1.20;0.10;;;;;;;16.30;55.66;100066.09;5015876;28;20021;-73
2023/04/02 11:18:40;;;;;;;0.65;0.10;;;;;;;16.44;56.18;100062.56;5016622;28;20715;-73
2023/04/02 11:21:25;;;;;;;0.57;0.10;;;;;;;16.68;55.03;100056.03;5014891;28;20073;-73
2023/04/02 11:23:58;;;;;;;0.30;0.00;;;;;;;17.08;50.48;100067.56;5016086;28;20030;-73
2023/04/02 11:26:40;;;;;;;0.17;0.00;;;;;;;17.13;51.72;100065.97;5014179;28;20288;-73
2023/04/02 11:29:08;;;;;;;0.20;0.10;;;;;;;17.06;54.29;100066.94;5016784;28;20128;-72
2023/04/02 11:31:34;;;;;;;0.20;0.10;;;;;;;17.19;54.79;100065.19;5012390;28;20422;-73
2023/04/02 11:33:59;;;;;;;0.90;0.05;;;;;;;17.33;54.20;100063.41;5016091;28;20038;-73
2023/04/02 11:37:04;;;;;;;0.40;0.10;;;;;;;17.46;53.75;100062.66;5013733;28;20534;-73
2023/04/02 11:39:55;;;;;;;1.30;0.10;;;;;;;17.51;52.79;100065.47;5011003;28;20111;-73
2023/04/02 11:42:22;;;;;;;0.25;0.00;;;;;;;17.57;53.11;100062.03;5011169;28;20049;-74
2023/04/02 11:44:48;;;;;;;0.63;0.03;;;;;;;17.55;53.26;100067.50;5012895;28;20067;-73
2023/04/02 11:47:17;;;;;;;0.20;0.10;;;;;;;17.36;54.08;100068.28;5022633;28;20493;-74
2023/04/02 11:50:03;;;;;;;0.47;0.10;;;;;;;17.24;52.54;100060.13;5022941;28;20030;-74
2023/04/02 11:52:48;;;;;;;1.13;0.10;;;;;;;17.14;54.08;100064.16;5018002;28;20092;-72
2023/04/02 11:55:16;;;;;;;0.30;0.00;;;;;;;17.08;55.82;100055.22;5023519;28;20029;-72